sensor_id;sensor_type;location;lat;lon;timestamp;pressure;altitude;pressure_sealevel;temperature;humidity
14966;BME280;7577;45.226;5.798;2023-03-19T00:02:19;99077.47;;;21.58;36.51
14966;BME280;7577;45.226;5.798;2023-03-19T00:04:49;99076.08;;;21.58;36.57
14966;BME280;7577;45.226;5.798;2023-03-19T00:07:20;99079.41;;;21.57;36.56
14966;BME280;7577;45.226;5.798;2023-03-19T00:09:50;99078.36;;;21.56;36.52
14966;BME280;7577;45.226;5.798;2023-03-19T00:12:20;99080.07;;;21.54;36.52
14966;BME280;7577;45.226;5.798;2023-03-19T00:17:28;99079.41;;;21.57;36.50
14966;BME280;7577;45.226;5.798;2023-03-19T00:20:00;99080.56;;;21.56;36.51
14966;BME280;7577;45.226;5.798;2023-03-19T00:22:30;99082.84;;;21.54;36.52
14966;BME280;7577;45.226;5.798;2023-03-19T00:25:00;99093.93;;;21.54;36.53
14966;BME280;7577;45.226;5.798;2023-03-19T00:27:32;99085.97;;;21.53;36.56
14966;BME280;7577;45.226;5.798;2023-03-19T00:30:03;99093.46;;;21.52;36.57
14966;BME280;7577;45.226;5.798;2023-03-19T00:32:34;99088.25;;;21.51;36.59
14966;BME280;7577;45.226;5.798;2023-03-19T00:35:07;99095.17;;;21.51;36.59
14966;BME280;7577;45.226;5.798;2023-03-19T00:37:37;99100.95;;;21.52;36.62
14966;BME280;7577;45.226;5.798;2023-03-19T00:42:48;99093.79;;;21.51;36.62
14966;BME280;7577;45.226;5.798;2023-03-19T00:45:18;99098.87;;;21.49;36.65
14966;BME280;7577;45.226;5.798;2023-03-19T00:47:49;99100.02;;;21.48;36.65
14966;BME280;7577;45.226;5.798;2023-03-19T00:50:19;99099.20;;;21.47;36.69
14966;BME280;7577;45.226;5.798;2023-03-19T00:52:50;99092.27;;;21.47;36.69
14966;BME280;7577;45.226;5.798;2023-03-19T00:55:20;99093.09;;;21.48;36.69
14966;BME280;7577;45.226;5.798;2023-03-19T00:57:50;99093.42;;;21.46;36.71
14966;BME280;7577;45.226;5.798;2023-03-19T01:00:21;99098.37;;;21.47;36.72
14966;BME280;7577;45.226;5.798;2023-03-19T01:02:52;99098.13;;;21.46;36.70
14966;BME280;7577;45.226;5.798;2023-03-19T01:05:22;99098.23;;;21.43;36.73
14966;BME280;7577;45.226;5.798;2023-03-19T01:07:52;99104.33;;;21.43;36.71
14966;BME280;7577;45.226;5.798;2023-03-19T01:13:02;99096.84;;;21.43;36.79
14966;BME280;7577;45.226;5.798;2023-03-19T01:15:34;99098.64;;;21.39;36.80
14966;BME280;7577;45.226;5.798;2023-03-19T01:18:05;99096.44;;;21.39;36.82
14966;BME280;7577;45.226;5.798;2023-03-19T01:20:38;99100.59;;;21.39;36.84
14966;BME280;7577;45.226;5.798;2023-03-19T01:23:09;99103.95;;;21.38;36.84
14966;BME280;7577;45.226;5.798;2023-03-19T01:25:39;99107.88;;;21.37;36.87
14966;BME280;7577;45.226;5.798;2023-03-19T01:28:09;99101.52;;;21.37;36.86
14966;BME280;7577;45.226;5.798;2023-03-19T01:30:39;99099.30;;;21.36;36.87
14966;BME280;7577;45.226;5.798;2023-03-19T01:33:09;99094.11;;;21.35;36.89
14966;BME280;7577;45.226;5.798;2023-03-19T01:38:17;99091.81;;;21.37;36.90
14966;BME280;7577;45.226;5.798;2023-03-19T01:40:48;99096.88;;;21.35;36.91
14966;BME280;7577;45.226;5.798;2023-03-19T01:43:20;99101.05;;;21.35;36.91
14966;BME280;7577;45.226;5.798;2023-03-19T01:45:52;99099.98;;;21.33;36.90
14966;BME280;7577;45.226;5.798;2023-03-19T01:48:30;99099.16;;;21.33;36.93
14966;BME280;7577;45.226;5.798;2023-03-19T01:51:00;99093.70;;;21.30;36.94
14966;BME280;7577;45.226;5.798;2023-03-19T01:53:33;99089.55;;;21.30;36.97
14966;BME280;7577;45.226;5.798;2023-03-19T01:56:07;99084.92;;;21.28;36.98
14966;BME280;7577;45.226;5.798;2023-03-19T01:58:39;99088.98;;;21.31;36.98
14966;BME280;7577;45.226;5.798;2023-03-19T02:01:10;99087.34;;;21.30;36.99
14966;BME280;7577;45.226;5.798;2023-03-19T02:03:42;99094.36;;;21.27;37.02
14966;BME280;7577;45.226;5.798;2023-03-19T02:06:13;99093.47;;;21.29;37.01
14966;BME280;7577;45.226;5.798;2023-03-19T02:08:44;99087.76;;;21.26;37.03
14966;BME280;7577;45.226;5.798;2023-03-19T02:11:15;99089.14;;;21.26;37.06
14966;BME280;7577;45.226;5.798;2023-03-19T02:13:47;99084.98;;;21.26;37.06
14966;BME280;7577;45.226;5.798;2023-03-19T02:16:17;99093.89;;;21.25;37.08
14966;BME280;7577;45.226;5.798;2023-03-19T02:18:49;99091.12;;;21.25;37.08
14966;BME280;7577;45.226;5.798;2023-03-19T02:21:20;99095.84;;;21.25;37.08
14966;BME280;7577;45.226;5.798;2023-03-19T02:23:53;99090.89;;;21.24;37.07
14966;BME280;7577;45.226;5.798;2023-03-19T02:26:26;99092.27;;;21.24;37.07
14966;BME280;7577;45.226;5.798;2023-03-19T02:28:57;99092.50;;;21.25;37.08
14966;BME280;7577;45.226;5.798;2023-03-19T02:31:27;99093.06;;;21.25;37.08
14966;BME280;7577;45.226;5.798;2023-03-19T02:33:59;99104.15;;;21.25;37.12
14966;BME280;7577;45.226;5.798;2023-03-19T02:36:33;99103.36;;;21.24;37.09
14966;BME280;7577;45.226;5.798;2023-03-19T02:39:09;99102.30;;;21.23;37.11
14966;BME280;7577;45.226;5.798;2023-03-19T02:41:39;99100.59;;;21.24;37.10
14966;BME280;7577;45.226;5.798;2023-03-19T02:44:11;99105.30;;;21.24;37.07
14966;BME280;7577;45.226;5.798;2023-03-19T02:46:42;99110.28;;;21.24;37.08
14966;BME280;7577;45.226;5.798;2023-03-19T02:49:12;99106.22;;;21.22;37.11
14966;BME280;7577;45.226;5.798;2023-03-19T02:51:42;99110.61;;;21.23;37.11
14966;BME280;7577;45.226;5.798;2023-03-19T02:54:12;99100.08;;;21.22;37.11
14966;BME280;7577;45.226;5.798;2023-03-19T02:56:43;99108.98;;;21.22;37.12
14966;BME280;7577;45.226;5.798;2023-03-19T02:59:14;99114.85;;;21.20;37.13
14966;BME280;7577;45.226;5.798;2023-03-19T03:04:22;99097.31;;;21.22;37.16
14966;BME280;7577;45.226;5.798;2023-03-19T03:06:52;99101.00;;;21.20;37.17
14966;BME280;7577;45.226;5.798;2023-03-19T03:09:22;99104.33;;;21.20;37.16
14966;BME280;7577;45.226;5.798;2023-03-19T03:11:53;99097.97;;;21.19;37.15
14966;BME280;7577;45.226;5.798;2023-03-19T03:14:23;99092.19;;;21.18;37.19
14966;BME280;7577;45.226;5.798;2023-03-19T03:16:54;99104.09;;;21.19;37.20
14966;BME280;7577;45.226;5.798;2023-03-19T03:19:26;99098.88;;;21.17;37.19
14966;BME280;7577;45.226;5.798;2023-03-19T03:24:37;99097.49;;;21.17;37.22
14966;BME280;7577;45.226;5.798;2023-03-19T03:27:07;99106.12;;;21.16;37.23
14966;BME280;7577;45.226;5.798;2023-03-19T03:29:37;99109.81;;;21.14;37.27
14966;BME280;7577;45.226;5.798;2023-03-19T03:32:08;99107.28;;;21.15;37.25
14966;BME280;7577;45.226;5.798;2023-03-19T03:34:38;99114.77;;;21.14;37.26
14966;BME280;7577;45.226;5.798;2023-03-19T03:37:09;99107.05;;;21.14;37.27
14966;BME280;7577;45.226;5.798;2023-03-19T03:39:39;99104.27;;;21.14;37.27
14966;BME280;7577;45.226;5.798;2023-03-19T03:42:10;99108.43;;;21.14;37.27
14966;BME280;7577;45.226;5.798;2023-03-19T03:44:40;99108.20;;;21.13;37.28
14966;BME280;7577;45.226;5.798;2023-03-19T03:47:12;99113.47;;;21.12;37.30
14966;BME280;7577;45.226;5.798;2023-03-19T03:52:20;99109.58;;;21.13;37.32
14966;BME280;7577;45.226;5.798;2023-03-19T03:54:50;99108.61;;;21.09;37.32
14966;BME280;7577;45.226;5.798;2023-03-19T03:57:20;99113.33;;;21.08;37.34
14966;BME280;7577;45.226;5.798;2023-03-19T03:59:50;99116.09;;;21.08;37.33
14966;BME280;7577;45.226;5.798;2023-03-19T04:02:20;99117.80;;;21.07;37.34
14966;BME280;7577;45.226;5.798;2023-03-19T04:04:51;99122.78;;;21.07;37.34
14966;BME280;7577;45.226;5.798;2023-03-19T04:07:22;99119.78;;;21.06;37.35
14966;BME280;7577;45.226;5.798;2023-03-19T04:09:52;99126.94;;;21.07;37.35
14966;BME280;7577;45.226;5.798;2023-03-19T04:15:00;99133.63;;;21.06;37.37
14966;BME280;7577;45.226;5.798;2023-03-19T04:17:31;99137.28;;;21.04;37.39
14966;BME280;7577;45.226;5.798;2023-03-19T04:20:03;99137.84;;;21.04;37.41
14966;BME280;7577;45.226;5.798;2023-03-19T04:22:33;99130.67;;;21.03;37.42
14966;BME280;7577;45.226;5.798;2023-03-19T04:25:05;99132.89;;;21.03;37.40
14966;BME280;7577;45.226;5.798;2023-03-19T04:30:14;99124.58;;;21.03;37.39
14966;BME280;7577;45.226;5.798;2023-03-19T04:32:44;99130.20;;;21.01;37.44
14966;BME280;7577;45.226;5.798;2023-03-19T04:35:15;99132.97;;;21.01;37.43
14966;BME280;7577;45.226;5.798;2023-03-19T04:37:46;99127.20;;;21.00;37.45
14966;BME280;7577;45.226;5.798;2023-03-19T04:40:17;99130.53;;;20.99;37.47
14966;BME280;7577;45.226;5.798;2023-03-19T04:45:25;99128.23;;;21.01;37.48
14966;BME280;7577;45.226;5.798;2023-03-19T04:47:56;99134.69;;;20.99;37.48
14966;BME280;7577;45.226;5.798;2023-03-19T04:53:04;99142.43;;;21.00;37.52
14966;BME280;7577;45.226;5.798;2023-03-19T04:55:34;99141.70;;;20.97;37.55
14966;BME280;7577;45.226;5.798;2023-03-19T04:58:04;99148.62;;;20.97;37.54
14966;BME280;7577;45.226;5.798;2023-03-19T05:00:37;99147.23;;;20.97;37.57
14966;BME280;7577;45.226;5.798;2023-03-19T05:05:45;99151.86;;;20.99;37.58
14966;BME280;7577;45.226;5.798;2023-03-19T05:08:15;99159.46;;;20.96;37.61
14966;BME280;7577;45.226;5.798;2023-03-19T05:10:45;99157.48;;;20.96;37.60
14966;BME280;7577;45.226;5.798;2023-03-19T05:13:15;99159.46;;;20.96;37.60
14966;BME280;7577;45.226;5.798;2023-03-19T05:15:46;99163.26;;;20.97;37.59
14966;BME280;7577;45.226;5.798;2023-03-19T05:18:16;99162.14;;;20.98;37.60
14966;BME280;7577;45.226;5.798;2023-03-19T05:20:46;99165.47;;;20.98;37.63
14966;BME280;7577;45.226;5.798;2023-03-19T05:23:17;99167.59;;;21.01;37.61
14966;BME280;7577;45.226;5.798;2023-03-19T05:25:47;99168.16;;;21.00;37.58
14966;BME280;7577;45.226;5.798;2023-03-19T05:30:56;99167.98;;;21.05;37.56
14966;BME280;7577;45.226;5.798;2023-03-19T05:33:26;99171.08;;;21.04;37.59
14966;BME280;7577;45.226;5.798;2023-03-19T05:35:56;99172.73;;;21.05;37.58
14966;BME280;7577;45.226;5.798;2023-03-19T05:38:27;99179.06;;;21.05;37.61
14966;BME280;7577;45.226;5.798;2023-03-19T05:40:57;99179.89;;;21.06;37.58
14966;BME280;7577;45.226;5.798;2023-03-19T05:43:28;99184.52;;;21.08;37.58
14966;BME280;7577;45.226;5.798;2023-03-19T05:45:58;99194.21;;;21.08;37.60
14966;BME280;7577;45.226;5.798;2023-03-19T05:48:29;99200.81;;;21.09;37.61
14966;BME280;7577;45.226;5.798;2023-03-19T05:51:00;99197.57;;;21.07;37.63
14966;BME280;7577;45.226;5.798;2023-03-19T05:53:31;99204.97;;;21.09;37.66
14966;BME280;7577;45.226;5.798;2023-03-19T05:58:43;99209.04;;;21.12;37.69
14966;BME280;7577;45.226;5.798;2023-03-19T06:01:13;99217.34;;;21.12;37.67
14966;BME280;7577;45.226;5.798;2023-03-19T06:03:44;99220.39;;;21.13;37.69
14966;BME280;7577;45.226;5.798;2023-03-19T06:06:14;99224.55;;;21.13;37.69
14966;BME280;7577;45.226;5.798;2023-03-19T06:11:22;99226.08;;;21.16;37.71
14966;BME280;7577;45.226;5.798;2023-03-19T06:13:52;99233.56;;;21.16;37.74
14966;BME280;7577;45.226;5.798;2023-03-19T06:16:23;99236.02;;;21.17;37.71
14966;BME280;7577;45.226;5.798;2023-03-19T06:18:53;99244.64;;;21.16;37.77
14966;BME280;7577;45.226;5.798;2023-03-19T06:24:04;99240.99;;;21.18;37.85
14966;BME280;7577;45.226;5.798;2023-03-19T06:26:35;99253.78;;;21.16;37.84
14966;BME280;7577;45.226;5.798;2023-03-19T06:29:08;99253.46;;;21.18;37.85
14966;BME280;7577;45.226;5.798;2023-03-19T06:34:16;99261.09;;;21.21;37.93
14966;BME280;7577;45.226;5.798;2023-03-19T06:36:46;99266.41;;;21.20;37.95
14966;BME280;7577;45.226;5.798;2023-03-19T06:39:16;99265.02;;;21.20;37.96
14966;BME280;7577;45.226;5.798;2023-03-19T06:41:46;99268.62;;;21.20;38.01
14966;BME280;7577;45.226;5.798;2023-03-19T06:44:17;99272.50;;;21.19;38.05
14966;BME280;7577;45.226;5.798;2023-03-19T06:46:48;99270.56;;;21.20;38.09
14966;BME280;7577;45.226;5.798;2023-03-19T06:49:18;99272.77;;;21.20;38.14
14966;BME280;7577;45.226;5.798;2023-03-19T06:51:49;99277.16;;;21.21;38.11
14966;BME280;7577;45.226;5.798;2023-03-19T06:54:19;99278.79;;;21.22;38.10
14966;BME280;7577;45.226;5.798;2023-03-19T06:56:49;99287.10;;;21.22;38.23
14966;BME280;7577;45.226;5.798;2023-03-19T07:01:57;99284.48;;;21.26;38.48
14966;BME280;7577;45.226;5.798;2023-03-19T07:04:28;99282.63;;;21.24;38.42
14966;BME280;7577;45.226;5.798;2023-03-19T07:06:58;99290.02;;;21.26;38.64
14966;BME280;7577;45.226;5.798;2023-03-19T07:09:30;99296.07;;;21.28;38.88
14966;BME280;7577;45.226;5.798;2023-03-19T07:12:00;99295.75;;;21.29;38.65
14966;BME280;7577;45.226;5.798;2023-03-19T07:14:31;99298.84;;;21.28;38.74
14966;BME280;7577;45.226;5.798;2023-03-19T07:17:01;99298.28;;;21.28;38.72
14966;BME280;7577;45.226;5.798;2023-03-19T07:19:31;99304.38;;;21.28;38.86
14966;BME280;7577;45.226;5.798;2023-03-19T07:24:40;99302.00;;;21.32;39.02
14966;BME280;7577;45.226;5.798;2023-03-19T07:27:10;99313.17;;;21.30;39.37
14966;BME280;7577;45.226;5.798;2023-03-19T07:29:41;99319.55;;;21.30;39.35
14966;BME280;7577;45.226;5.798;2023-03-19T07:32:12;99321.17;;;21.31;39.20
14966;BME280;7577;45.226;5.798;2023-03-19T07:37:20;99327.69;;;21.35;39.43
14966;BME280;7577;45.226;5.798;2023-03-19T07:39:50;99330.23;;;21.34;39.54
14966;BME280;7577;45.226;5.798;2023-03-19T07:42:20;99335.77;;;21.34;39.69
14966;BME280;7577;45.226;5.798;2023-03-19T07:44:51;99341.87;;;21.34;39.68
14966;BME280;7577;45.226;5.798;2023-03-19T07:47:20;99342.70;;;21.34;39.82
14966;BME280;7577;45.226;5.798;2023-03-19T07:49:51;99347.92;;;21.36;39.94
14966;BME280;7577;45.226;5.798;2023-03-19T07:52:21;99345.63;;;21.38;39.89
14966;BME280;7577;45.226;5.798;2023-03-19T07:54:51;99355.83;;;21.40;39.94
14966;BME280;7577;45.226;5.798;2023-03-19T07:57:21;99348.08;;;21.39;39.93
14966;BME280;7577;45.226;5.798;2023-03-19T07:59:53;99347.52;;;21.40;39.98
14966;BME280;7577;45.226;5.798;2023-03-19T08:02:24;99352.73;;;21.41;40.04
14966;BME280;7577;45.226;5.798;2023-03-19T08:04:54;99356.30;;;21.42;39.93
14966;BME280;7577;45.226;5.798;2023-03-19T08:07:25;99357.45;;;21.41;39.95
14966;BME280;7577;45.226;5.798;2023-03-19T08:09:55;99361.37;;;21.40;39.97
14966;BME280;7577;45.226;5.798;2023-03-19T08:12:25;99366.59;;;21.41;40.03
14966;BME280;7577;45.226;5.798;2023-03-19T08:14:55;99362.09;;;21.43;40.32
14966;BME280;7577;45.226;5.798;2023-03-19T08:17:25;99359.08;;;21.42;40.35
14966;BME280;7577;45.226;5.798;2023-03-19T08:19:56;99368.22;;;21.42;40.60
14966;BME280;7577;45.226;5.798;2023-03-19T08:22:26;99365.92;;;21.44;40.57
14966;BME280;7577;45.226;5.798;2023-03-19T08:27:34;99363.07;;;21.47;40.78
14966;BME280;7577;45.226;5.798;2023-03-19T08:30:07;99366.98;;;21.46;40.85
14966;BME280;7577;45.226;5.798;2023-03-19T08:32:38;99368.30;;;21.48;41.77
14966;BME280;7577;45.226;5.798;2023-03-19T08:35:10;99367.50;;;21.48;41.83
14966;BME280;7577;45.226;5.798;2023-03-19T08:37:40;99366.67;;;21.47;41.55
14966;BME280;7577;45.226;5.798;2023-03-19T08:40:12;99369.13;;;21.49;41.57
14966;BME280;7577;45.226;5.798;2023-03-19T08:42:42;99361.36;;;21.48;41.85
14966;BME280;7577;45.226;5.798;2023-03-19T08:45:14;99365.67;;;21.52;41.85
14966;BME280;7577;45.226;5.798;2023-03-19T08:47:46;99365.95;;;21.53;41.83
14966;BME280;7577;45.226;5.798;2023-03-19T08:50:17;99361.78;;;21.53;42.40
14966;BME280;7577;45.226;5.798;2023-03-19T08:52:47;99361.78;;;21.53;42.72
14966;BME280;7577;45.226;5.798;2023-03-19T08:55:18;99366.73;;;21.53;42.73
14966;BME280;7577;45.226;5.798;2023-03-19T08:57:49;99369.27;;;21.52;42.87
14966;BME280;7577;45.226;5.798;2023-03-19T09:00:21;99368.31;;;21.57;42.59
14966;BME280;7577;45.226;5.798;2023-03-19T09:02:51;99373.91;;;21.54;42.45
14966;BME280;7577;45.226;5.798;2023-03-19T09:05:21;99376.13;;;21.55;42.59
14966;BME280;7577;45.226;5.798;2023-03-19T09:07:52;99380.52;;;21.56;42.10
14966;BME280;7577;45.226;5.798;2023-03-19T09:10:22;99379.95;;;21.56;41.89
14966;BME280;7577;45.226;5.798;2023-03-19T09:15:30;99382.49;;;21.55;41.75
14966;BME280;7577;45.226;5.798;2023-03-19T09:18:00;99383.96;;;21.53;41.69
14966;BME280;7577;45.226;5.798;2023-03-19T09:20:30;99380.36;;;21.52;41.66
14966;BME280;7577;45.226;5.798;2023-03-19T09:23:01;99389.59;;;21.50;41.69
14966;BME280;7577;45.226;5.798;2023-03-19T09:25:32;99391.77;;;21.51;41.64
14966;BME280;7577;45.226;5.798;2023-03-19T09:28:02;99389.00;;;21.51;41.57
14966;BME280;7577;45.226;5.798;2023-03-19T09:30:32;99385.91;;;21.52;41.55
14966;BME280;7577;45.226;5.798;2023-03-19T09:33:04;99382.07;;;21.51;41.82
14966;BME280;7577;45.226;5.798;2023-03-19T09:35:34;99384.52;;;21.52;41.52
14966;BME280;7577;45.226;5.798;2023-03-19T09:38:06;99380.92;;;21.52;41.50
14966;BME280;7577;45.226;5.798;2023-03-19T09:40:40;99388.12;;;21.53;41.41
14966;BME280;7577;45.226;5.798;2023-03-19T09:43:28;99390.30;;;21.53;41.44
14966;BME280;7577;45.226;5.798;2023-03-19T09:46:00;99386.97;;;21.54;41.46
14966;BME280;7577;45.226;5.798;2023-03-19T09:48:34;99383.61;;;21.54;41.40
14966;BME280;7577;45.226;5.798;2023-03-19T09:51:07;99387.45;;;21.56;41.43
14966;BME280;7577;45.226;5.798;2023-03-19T09:53:41;99377.75;;;21.56;41.36
14966;BME280;7577;45.226;5.798;2023-03-19T09:56:14;99379.95;;;21.56;41.33
14966;BME280;7577;45.226;5.798;2023-03-19T09:58:46;99377.75;;;21.56;41.33
14966;BME280;7577;45.226;5.798;2023-03-19T10:01:24;99374.66;;;21.57;41.30
14966;BME280;7577;45.226;5.798;2023-03-19T10:07:06;99368.05;;;21.56;41.27
14966;BME280;7577;45.226;5.798;2023-03-19T10:09:43;99369.94;;;21.58;41.26
14966;BME280;7577;45.226;5.798;2023-03-19T10:12:25;99363.00;;;21.58;41.60
14966;BME280;7577;45.226;5.798;2023-03-19T10:15:07;99367.16;;;21.58;41.28
14966;BME280;7577;45.226;5.798;2023-03-19T10:17:39;99370.17;;;21.59;41.21
14966;BME280;7577;45.226;5.798;2023-03-19T10:20:15;99373.18;;;21.60;41.14
14966;BME280;7577;45.226;5.798;2023-03-19T10:25:30;99370.91;;;21.62;41.19
14966;BME280;7577;45.226;5.798;2023-03-19T10:28:09;99361.53;;;21.60;41.57
14966;BME280;7577;45.226;5.798;2023-03-19T10:30:38;99365.54;;;21.57;42.01
14966;BME280;7577;45.226;5.798;2023-03-19T10:33:13;99367.64;;;21.60;41.93
14966;BME280;7577;45.226;5.798;2023-03-19T10:35:46;99362.09;;;21.60;42.59
14966;BME280;7577;45.226;5.798;2023-03-19T10:38:19;99368.23;;;21.59;42.80
14966;BME280;7577;45.226;5.798;2023-03-19T10:41:02;99360.15;;;21.60;42.51
14966;BME280;7577;45.226;5.798;2023-03-19T10:43:31;99361.03;;;21.58;42.47
14966;BME280;7577;45.226;5.798;2023-03-19T10:46:02;99355.84;;;21.57;42.52
14966;BME280;7577;45.226;5.798;2023-03-19T10:48:32;99354.77;;;21.55;42.66
14966;BME280;7577;45.226;5.798;2023-03-19T10:51:05;99355.84;;;21.57;43.02
14966;BME280;7577;45.226;5.798;2023-03-19T10:53:38;99351.09;;;21.57;43.21
14966;BME280;7577;45.226;5.798;2023-03-19T10:56:17;99355.16;;;21.60;43.51
14966;BME280;7577;45.226;5.798;2023-03-19T10:58:59;99354.02;;;21.61;43.71
14966;BME280;7577;45.226;5.798;2023-03-19T11:01:32;99351.00;;;21.60;43.75
14966;BME280;7577;45.226;5.798;2023-03-19T11:04:11;99355.67;;;21.62;43.63
14966;BME280;7577;45.226;5.798;2023-03-19T11:06:42;99348.41;;;21.63;43.84
14966;BME280;7577;45.226;5.798;2023-03-19T11:09:22;99350.84;;;21.65;43.81
14966;BME280;7577;45.226;5.798;2023-03-19T11:11:56;99350.03;;;21.64;44.22
14966;BME280;7577;45.226;5.798;2023-03-19T11:14:31;99343.11;;;21.64;45.38
14966;BME280;7577;45.226;5.798;2023-03-19T11:17:05;99342.28;;;21.64;44.74
14966;BME280;7577;45.226;5.798;2023-03-19T11:19:39;99340.80;;;21.66;45.21
14966;BME280;7577;45.226;5.798;2023-03-19T11:22:15;99343.25;;;21.68;45.21
14966;BME280;7577;45.226;5.798;2023-03-19T11:24:56;99342.41;;;21.70;45.32
14966;BME280;7577;45.226;5.798;2023-03-19T11:27:28;99335.95;;;21.72;45.29
14966;BME280;7577;45.226;5.798;2023-03-19T11:30:02;99336.19;;;21.73;45.10
14966;BME280;7577;45.226;5.798;2023-03-19T11:35:50;99325.69;;;21.72;45.16
14966;BME280;7577;45.226;5.798;2023-03-19T11:38:23;99322.23;;;21.75;45.15
14966;BME280;7577;45.226;5.798;2023-03-19T11:40:59;99321.34;;;21.77;45.07
14966;BME280;7577;45.226;5.798;2023-03-19T11:43:49;99317.09;;;21.80;45.26
14966;BME280;7577;45.226;5.798;2023-03-19T11:46:28;99321.17;;;21.82;45.14
14966;BME280;7577;45.226;5.798;2023-03-19T11:49:13;99320.61;;;21.83;45.24
14966;BME280;7577;45.226;5.798;2023-03-19T11:51:47;99318.31;;;21.85;45.11
14966;BME280;7577;45.226;5.798;2023-03-19T11:54:22;99314.63;;;21.87;45.20
14966;BME280;7577;45.226;5.798;2023-03-19T11:56:57;99316.52;;;21.89;45.01
14966;BME280;7577;45.226;5.798;2023-03-19T12:02:53;99305.65;;;21.90;44.97
14966;BME280;7577;45.226;5.798;2023-03-19T12:05:28;99295.38;;;21.90;44.85
14966;BME280;7577;45.226;5.798;2023-03-19T12:08:08;99302.79;;;21.92;45.08
14966;BME280;7577;45.226;5.798;2023-03-19T12:10:49;99295.20;;;21.95;45.06
14966;BME280;7577;45.226;5.798;2023-03-19T12:13:28;99294.61;;;21.96;44.91
14966;BME280;7577;45.226;5.798;2023-03-19T12:16:04;99295.34;;;21.99;45.13
14966;BME280;7577;45.226;5.798;2023-03-19T12:18:47;99288.41;;;21.99;45.29
14966;BME280;7577;45.226;5.798;2023-03-19T12:21:23;99287.26;;;22.00;45.43
14966;BME280;7577;45.226;5.798;2023-03-19T12:24:00;99279.53;;;21.99;45.65
14966;BME280;7577;45.226;5.798;2023-03-19T12:26:37;99280.59;;;22.01;46.83
14966;BME280;7577;45.226;5.798;2023-03-19T12:29:12;99283.27;;;22.03;46.91
14966;BME280;7577;45.226;5.798;2023-03-19T12:31:51;99271.91;;;22.02;46.86
14966;BME280;7577;45.226;5.798;2023-03-19T12:37:15;99272.59;;;21.99;46.62
14966;BME280;7577;45.226;5.798;2023-03-19T12:39:51;99275.60;;;22.00;46.47
14966;BME280;7577;45.226;5.798;2023-03-19T12:42:22;99271.77;;;21.99;46.70
14966;BME280;7577;45.226;5.798;2023-03-19T12:44:55;99269.23;;;22.00;46.75
14966;BME280;7577;45.226;5.798;2023-03-19T12:47:29;99269.49;;;22.01;46.61
14966;BME280;7577;45.226;5.798;2023-03-19T12:50:02;99264.03;;;21.98;46.40
14966;BME280;7577;45.226;5.798;2023-03-19T12:52:36;99263.54;;;21.96;46.11
14966;BME280;7577;45.226;5.798;2023-03-19T12:55:12;99265.25;;;21.95;46.18
14966;BME280;7577;45.226;5.798;2023-03-19T12:57:45;99263.86;;;21.95;46.09
14966;BME280;7577;45.226;5.798;2023-03-19T13:00:20;99262.48;;;21.95;46.07
14966;BME280;7577;45.226;5.798;2023-03-19T13:02:54;99257.02;;;21.92;45.87
14966;BME280;7577;45.226;5.798;2023-03-19T13:05:30;99262.57;;;21.92;45.71
14966;BME280;7577;45.226;5.798;2023-03-19T13:08:04;99252.63;;;21.91;45.76
14966;BME280;7577;45.226;5.798;2023-03-19T13:10:34;99246.58;;;21.89;45.70
14966;BME280;7577;45.226;5.798;2023-03-19T13:13:09;99246.02;;;21.90;45.48
14966;BME280;7577;45.226;5.798;2023-03-19T13:15:40;99256.05;;;21.88;45.46
14966;BME280;7577;45.226;5.798;2023-03-19T13:18:15;99247.97;;;21.89;45.50
14966;BME280;7577;45.226;5.798;2023-03-19T13:20:55;99246.34;;;21.88;45.31
14966;BME280;7577;45.226;5.798;2023-03-19T13:23:29;99249.02;;;21.91;45.27
14966;BME280;7577;45.226;5.798;2023-03-19T13:26:00;99241.03;;;21.89;45.21
14966;BME280;7577;45.226;5.798;2023-03-19T13:28:35;99238.25;;;21.89;45.14
14966;BME280;7577;45.226;5.798;2023-03-19T13:33:54;99238.02;;;21.97;45.05
14966;BME280;7577;45.226;5.798;2023-03-19T13:36:26;99241.84;;;21.98;45.08
14966;BME280;7577;45.226;5.798;2023-03-19T13:38:59;99228.34;;;22.03;44.93
14966;BME280;7577;45.226;5.798;2023-03-19T13:41:53;99217.39;;;22.06;44.79
14966;BME280;7577;45.226;5.798;2023-03-19T13:44:37;99216.17;;;22.10;44.67
14966;BME280;7577;45.226;5.798;2023-03-19T13:50:26;99208.97;;;22.09;44.56
14966;BME280;7577;45.226;5.798;2023-03-19T13:53:22;99212.25;;;22.11;44.52
14966;BME280;7577;45.226;5.798;2023-03-19T13:55:54;99206.79;;;22.08;44.59
14966;BME280;7577;45.226;5.798;2023-03-19T13:58:27;99200.58;;;22.12;44.44
14966;BME280;7577;45.226;5.798;2023-03-19T14:01:37;99198.05;;;22.13;44.39
14966;BME280;7577;45.226;5.798;2023-03-19T14:04:21;99191.01;;;22.15;44.39
14966;BME280;7577;45.226;5.798;2023-03-19T14:06:54;99194.16;;;22.19;44.33
14966;BME280;7577;45.226;5.798;2023-03-19T14:12:44;99181.20;;;22.32;44.30
14966;BME280;7577;45.226;5.798;2023-03-19T14:15:21;99175.35;;;22.40;44.17
14966;BME280;7577;45.226;5.798;2023-03-19T14:17:56;99177.80;;;22.41;44.01
14966;BME280;7577;45.226;5.798;2023-03-19T14:20:30;99174.43;;;22.42;43.96
14966;BME280;7577;45.226;5.798;2023-03-19T14:23:20;99165.20;;;22.44;43.94
14966;BME280;7577;45.226;5.798;2023-03-19T14:28:59;99159.52;;;22.40;43.91
14966;BME280;7577;45.226;5.798;2023-03-19T14:31:34;99160.55;;;22.42;43.77
14966;BME280;7577;45.226;5.798;2023-03-19T14:34:26;99159.03;;;22.38;43.86
14966;BME280;7577;45.226;5.798;2023-03-19T14:37:00;99159.47;;;22.34;43.85
14966;BME280;7577;45.226;5.798;2023-03-19T14:39:33;99152.52;;;22.34;43.91
14966;BME280;7577;45.226;5.798;2023-03-19T14:42:12;99153.34;;;22.35;43.89
14966;BME280;7577;45.226;5.798;2023-03-19T14:45:13;99148.36;;;22.34;43.85
14966;BME280;7577;45.226;5.798;2023-03-19T14:53:48;99131.70;;;22.34;43.73
14966;BME280;7577;45.226;5.798;2023-03-19T14:56:23;99136.10;;;22.35;43.60
14966;BME280;7577;45.226;5.798;2023-03-19T14:58:54;99130.22;;;22.37;43.60
14966;BME280;7577;45.226;5.798;2023-03-19T15:01:26;99131.84;;;22.38;43.58
14966;BME280;7577;45.226;5.798;2023-03-19T15:03:59;99130.38;;;22.40;43.60
14966;BME280;7577;45.226;5.798;2023-03-19T15:06:34;99129.22;;;22.41;43.47
14966;BME280;7577;45.226;5.798;2023-03-19T15:09:09;99123.67;;;22.41;43.44
14966;BME280;7577;45.226;5.798;2023-03-19T15:11:55;99118.45;;;22.40;43.47